createdAt,value
2022-09-28T00:01:08.422Z,2.40
2022-09-28T00:03:36.820Z,2.53
2022-09-28T00:06:06.273Z,2.10
2022-09-28T00:08:35.220Z,2.30
2022-09-28T00:11:04.143Z,2.13
2022-09-28T00:13:33.130Z,2.10
2022-09-28T00:16:04.333Z,1.93
2022-09-28T00:18:32.487Z,2.20
2022-09-28T00:21:14.870Z,1.83
2022-09-28T00:23:57.686Z,1.70
2022-09-28T00:26:26.212Z,1.90
2022-09-28T00:28:54.595Z,2.00
2022-09-28T00:31:25.337Z,2.10
2022-09-28T00:33:55.462Z,1.90
2022-09-28T00:36:23.741Z,1.97
2022-09-28T00:38:52.631Z,1.70
2022-09-28T00:41:20.760Z,1.70
2022-09-28T00:43:48.870Z,2.07
2022-09-28T00:46:20.271Z,1.57
2022-09-28T00:48:54.263Z,1.77
2022-09-28T00:51:22.801Z,1.73
2022-09-28T00:53:52.306Z,1.57
2022-09-28T00:56:22.346Z,1.60
2022-09-28T00:58:53.612Z,1.87
2022-09-28T01:01:22.083Z,1.43
2022-09-28T01:03:51.546Z,1.60
2022-09-28T01:06:21.756Z,1.80
2022-09-28T01:08:52.166Z,1.90
2022-09-28T01:11:20.606Z,1.70
2022-09-28T01:13:50.308Z,1.73
2022-09-28T01:16:24.850Z,1.43
2022-09-28T01:19:01.136Z,1.50
2022-09-28T01:21:29.260Z,1.30
2022-09-28T01:24:12.760Z,1.70
2022-09-28T01:27:08.777Z,1.63
2022-09-28T01:29:46.540Z,1.70
2022-09-28T01:32:25.106Z,1.93
2022-09-28T01:34:58.869Z,2.07
2022-09-28T01:37:43.930Z,1.90
2022-09-28T01:40:14.049Z,2.40
2022-09-28T01:42:46.316Z,2.10
2022-09-28T01:45:18.447Z,2.70
2022-09-28T01:47:47.795Z,2.37
2022-09-28T01:50:17.835Z,2.23
2022-09-28T01:52:50.569Z,2.10
2022-09-28T01:55:22.459Z,2.23
2022-09-28T01:57:54.557Z,1.90
2022-09-28T02:00:24.229Z,2.00
2022-09-28T02:02:55.837Z,2.13
2022-09-28T02:05:27.635Z,2.00
2022-09-28T02:07:59.775Z,2.23
2022-09-28T02:10:31.738Z,1.97
2022-09-28T02:13:03.228Z,2.07
2022-09-28T02:15:36.970Z,2.07
2022-09-28T02:18:05.376Z,2.37
2022-09-28T02:20:34.126Z,2.60
2022-09-28T02:23:03.429Z,2.67
2022-09-28T02:25:36.467Z,2.70
2022-09-28T02:28:07.542Z,2.97
2022-09-28T02:30:38.277Z,2.77
2022-09-28T02:33:10.767Z,3.20
2022-09-28T02:35:39.697Z,2.73
2022-09-28T02:38:07.810Z,2.80
2022-09-28T02:40:38.972Z,2.70
2022-09-28T02:43:16.127Z,2.80
2022-09-28T02:45:52.653Z,2.90
2022-09-28T02:48:44.032Z,2.87
2022-09-28T02:51:20.537Z,3.20
2022-09-28T02:54:18.824Z,3.03
2022-09-28T02:57:00.107Z,2.90
2022-09-28T02:59:38.518Z,3.60
2022-09-28T03:02:12.848Z,3.37
2022-09-28T03:04:45.988Z,2.70
2022-09-28T03:07:19.058Z,3.20
2022-09-28T03:09:54.367Z,3.10
2022-09-28T03:12:24.843Z,2.80
2022-09-28T03:15:10.555Z,3.20
2022-09-28T03:17:38.930Z,2.60
2022-09-28T03:20:08.299Z,2.93
2022-09-28T03:22:36.357Z,3.10
2022-09-28T03:25:05.087Z,3.27
2022-09-28T03:27:33.375Z,3.43
2022-09-28T03:30:01.869Z,3.30
2022-09-28T03:32:31.337Z,3.30
2022-09-28T03:34:59.513Z,3.30
2022-09-28T03:37:27.919Z,2.97
2022-09-28T03:39:56.068Z,3.10
2022-09-28T03:42:24.196Z,3.33
2022-09-28T03:44:52.331Z,2.90
2022-09-28T03:47:21.507Z,2.90
2022-09-28T03:49:51.189Z,2.67
2022-09-28T03:52:19.656Z,2.87
2022-09-28T03:54:49.410Z,2.63
2022-09-28T03:57:17.617Z,3.13
2022-09-28T03:59:45.774Z,3.03
2022-09-28T04:02:13.892Z,2.80
2022-09-28T04:04:41.998Z,2.70
2022-09-28T04:07:11.487Z,2.80
2022-09-28T04:09:39.635Z,2.70
2022-09-28T04:12:07.988Z,2.77
2022-09-28T04:14:36.147Z,2.53
2022-09-28T04:17:05.156Z,2.70
2022-09-28T04:19:33.278Z,2.70
2022-09-28T04:22:01.839Z,2.53
2022-09-28T04:24:31.344Z,2.77
2022-09-28T04:27:19.467Z,2.50
2022-09-28T04:29:46.617Z,2.73
2022-09-28T04:32:14.708Z,2.60
2022-09-28T04:34:44.307Z,2.67
2022-09-28T04:37:12.769Z,2.60
2022-09-28T04:39:46.165Z,2.80
2022-09-28T04:42:16.501Z,3.67
2022-09-28T04:44:44.527Z,3.10
2022-09-28T04:47:12.607Z,2.97
2022-09-28T04:49:40.826Z,3.20
2022-09-28T04:52:09.494Z,2.87
2022-09-28T04:54:37.594Z,2.90
2022-09-28T04:57:07.168Z,2.50
2022-09-28T04:59:36.415Z,3.20
2022-09-28T05:02:04.646Z,2.80
2022-09-28T05:04:32.897Z,3.23
2022-09-28T05:07:01.047Z,3.00
2022-09-28T05:09:29.106Z,3.13
2022-09-28T05:11:57.197Z,3.37
2022-09-28T05:14:26.867Z,3.20
2022-09-28T05:16:55.069Z,3.53
2022-09-28T05:19:23.217Z,2.97
2022-09-28T05:21:51.357Z,3.00
2022-09-28T05:24:19.487Z,3.97
2022-09-28T05:26:47.587Z,2.97
2022-09-28T05:29:15.837Z,3.20
2022-09-28T05:31:45.320Z,3.40
2022-09-28T05:34:13.556Z,3.17
2022-09-28T05:36:42.917Z,3.83
2022-09-28T05:39:11.126Z,3.00
2022-09-28T05:41:39.254Z,3.40
2022-09-28T05:44:07.419Z,3.60
2022-09-28T05:46:35.557Z,3.20
2022-09-28T05:49:05.185Z,3.57
2022-09-28T05:51:33.229Z,3.23
2022-09-28T05:54:05.945Z,3.30
2022-09-28T05:56:34.387Z,3.20
2022-09-28T05:59:05.427Z,3.30
2022-09-28T06:01:33.765Z,3.17
2022-09-28T06:04:02.395Z,3.77
2022-09-28T06:06:31.946Z,3.57
2022-09-28T06:09:00.008Z,2.43
2022-09-28T06:11:28.283Z,3.07
2022-09-28T06:13:56.635Z,2.97
2022-09-28T06:16:25.798Z,3.27
2022-09-28T06:18:53.957Z,3.23
2022-09-28T06:21:22.339Z,2.90
2022-09-28T06:23:52.145Z,2.80
2022-09-28T06:26:20.447Z,2.90
2022-09-28T06:28:48.580Z,2.93
2022-09-28T06:31:16.765Z,2.70
2022-09-28T06:33:44.948Z,2.93
2022-09-28T06:36:13.928Z,2.67
2022-09-28T06:38:42.066Z,3.27
2022-09-28T06:41:12.517Z,2.80
2022-09-28T06:43:40.954Z,2.63
2022-09-28T06:46:10.655Z,2.53
2022-09-28T06:48:38.807Z,2.60
2022-09-28T06:51:07.267Z,2.20
2022-09-28T06:53:35.974Z,2.33
2022-09-28T06:56:05.069Z,2.27
2022-09-28T06:58:34.638Z,2.30
2022-09-28T07:01:02.818Z,1.80
2022-09-28T07:03:31.057Z,1.67
2022-09-28T07:05:59.215Z,2.30
2022-09-28T07:08:29.095Z,1.70
2022-09-28T07:10:57.510Z,2.00
2022-09-28T07:16:19.609Z,2.23
2022-09-28T07:18:49.801Z,2.40
2022-09-28T07:21:28.000Z,2.67
2022-09-28T07:23:57.566Z,2.50
2022-09-28T07:26:25.866Z,2.20
2022-09-28T07:28:56.077Z,2.30
2022-09-28T07:31:26.557Z,2.10
2022-09-28T07:33:55.542Z,2.17
2022-09-28T07:36:23.716Z,1.80
2022-09-28T07:38:51.827Z,1.93
2022-09-28T07:41:27.445Z,2.13
2022-09-28T07:43:55.628Z,1.77
2022-09-28T07:46:25.262Z,2.20
2022-09-28T07:48:53.894Z,2.00
2022-09-28T07:51:22.327Z,2.57
2022-09-28T07:53:50.490Z,2.17
2022-09-28T07:56:20.535Z,2.50
2022-09-28T07:58:49.030Z,2.10
2022-09-28T08:01:19.232Z,2.50
2022-09-28T08:03:48.837Z,5.00
2022-09-28T08:06:18.494Z,5.47
2022-09-28T08:08:46.904Z,2.53
2022-09-28T08:11:16.847Z,1.97
2022-09-28T08:13:46.629Z,1.90
2022-09-28T08:16:14.966Z,1.43
2022-09-28T08:18:43.152Z,1.27
2022-09-28T08:21:30.019Z,1.40
2022-09-28T08:23:58.132Z,1.70
2022-09-28T08:26:26.422Z,1.20
2022-09-28T08:28:54.468Z,1.90
2022-09-28T08:31:22.782Z,1.27
2022-09-28T08:33:54.643Z,1.40
2022-09-28T08:36:24.211Z,1.50
2022-09-28T08:38:52.414Z,1.53
2022-09-28T08:41:26.039Z,1.63
2022-09-28T08:44:03.955Z,1.90
2022-09-28T08:46:35.704Z,2.10
2022-09-28T08:49:25.049Z,1.67
2022-09-28T08:51:59.721Z,2.00
2022-09-28T08:54:35.875Z,1.40
2022-09-28T08:57:07.066Z,1.60
2022-09-28T08:59:47.767Z,1.83
2022-09-28T09:02:18.772Z,1.30
2022-09-28T09:04:46.996Z,1.33
2022-09-28T09:07:51.257Z,1.20
2022-09-28T09:10:47.149Z,0.83
2022-09-28T09:13:30.984Z,1.10
2022-09-28T09:16:03.175Z,1.03
2022-09-28T09:18:42.835Z,1.23
2022-09-28T09:21:15.857Z,0.93
2022-09-28T09:23:55.519Z,1.10
2022-09-28T09:26:30.959Z,1.43
2022-09-28T09:29:15.017Z,2.17
2022-09-28T09:31:59.806Z,1.03
2022-09-28T09:35:05.722Z,1.20
2022-09-28T09:37:57.762Z,0.90
2022-09-28T09:40:37.817Z,1.03
2022-09-28T09:43:16.276Z,1.50
2022-09-28T09:45:55.115Z,1.53
2022-09-28T09:48:27.155Z,1.13
2022-09-28T09:50:58.724Z,1.03
2022-09-28T09:53:28.987Z,0.97
2022-09-28T09:56:03.924Z,1.00
2022-09-28T09:58:35.816Z,0.90
2022-09-28T10:01:09.821Z,0.90
2022-09-28T10:03:42.037Z,0.97
2022-09-28T10:06:13.326Z,0.80
2022-09-28T10:08:44.538Z,1.23
2022-09-28T10:11:17.080Z,0.80
2022-09-28T10:13:45.458Z,0.87
2022-09-28T10:16:13.885Z,0.87
2022-09-28T10:18:42.427Z,0.90
2022-09-28T10:21:14.559Z,1.03
2022-09-28T10:23:43.229Z,0.73
2022-09-28T10:26:16.198Z,0.87
2022-09-28T10:28:50.047Z,1.20
2022-09-28T10:31:38.563Z,9.27
2022-09-28T10:34:08.384Z,1.40
2022-09-28T10:36:47.687Z,1.10
2022-09-28T10:39:32.014Z,1.00
2022-09-28T10:42:04.551Z,1.30
2022-09-28T10:44:35.068Z,1.20
2022-09-28T10:47:05.776Z,1.10
2022-09-28T10:49:45.823Z,0.90
2022-09-28T10:52:33.349Z,1.10
2022-09-28T10:55:02.018Z,1.17
2022-09-28T10:57:36.918Z,0.93
2022-09-28T11:00:07.168Z,1.07
2022-09-28T11:02:36.926Z,1.07
2022-09-28T11:05:07.189Z,1.30
2022-09-28T11:07:46.311Z,0.97
2022-09-28T11:10:22.308Z,1.10
2022-09-28T11:12:52.600Z,1.43
2022-09-28T11:15:22.068Z,1.00
2022-09-28T11:17:50.449Z,1.50
2022-09-28T11:20:31.824Z,1.40
2022-09-28T11:23:00.888Z,1.63
2022-09-28T11:25:30.415Z,1.37
2022-09-28T11:28:01.854Z,1.77
2022-09-28T11:30:33.068Z,1.30
2022-09-28T11:33:05.558Z,1.60
2022-09-28T11:35:43.854Z,2.00
2022-09-28T11:38:22.682Z,2.40
2022-09-28T11:40:58.625Z,3.90
2022-09-28T11:43:49.774Z,2.90
2022-09-28T11:46:27.259Z,1.97
2022-09-28T11:48:57.994Z,2.27
2022-09-28T11:51:28.708Z,2.80
2022-09-28T11:54:00.343Z,2.80
2022-09-28T11:56:35.182Z,2.70
2022-09-28T11:59:10.125Z,2.50
2022-09-28T12:01:42.429Z,2.90
2022-09-28T12:04:14.162Z,2.10
2022-09-28T12:06:46.807Z,1.70
2022-09-28T12:09:19.993Z,1.40
2022-09-28T12:11:50.995Z,1.27
2022-09-28T12:14:24.995Z,1.40
2022-09-28T12:17:07.457Z,1.40
2022-09-28T12:19:40.300Z,1.10
2022-09-28T12:22:15.235Z,1.93
2022-09-28T12:24:45.866Z,1.03
2022-09-28T12:27:16.956Z,1.03
2022-09-28T12:29:48.801Z,1.27
2022-09-28T12:32:25.936Z,0.80
2022-09-28T12:34:54.178Z,1.20
2022-09-28T12:37:33.366Z,1.10
2022-09-28T12:40:26.521Z,0.80
2022-09-28T12:43:05.759Z,0.60
2022-09-28T12:46:06.759Z,0.90
2022-09-28T12:49:40.978Z,1.00
2022-09-28T12:51:50.678Z,0.80
2022-09-28T12:54:44.408Z,1.10
2022-09-28T12:57:31.609Z,1.07
2022-09-28T13:00:05.687Z,0.97
2022-09-28T13:03:02.517Z,1.00
2022-09-28T13:05:57.329Z,0.73
2022-09-28T13:08:32.406Z,1.03
2022-09-28T13:11:08.116Z,1.40
2022-09-28T13:13:46.304Z,1.00
2022-09-28T13:16:18.212Z,0.97
2022-09-28T13:18:52.287Z,1.20
2022-09-28T13:21:27.060Z,1.57
2022-09-28T13:24:08.751Z,0.97
2022-09-28T13:26:47.337Z,1.10
2022-09-28T13:29:18.024Z,1.20
2022-09-28T13:31:48.265Z,1.13
2022-09-28T13:34:22.630Z,1.10
2022-09-28T13:37:21.830Z,1.00
2022-09-28T13:39:52.993Z,0.97
2022-09-28T13:42:59.247Z,1.10
2022-09-28T13:45:52.524Z,0.80
2022-09-28T13:48:23.508Z,1.07
2022-09-28T13:51:06.265Z,1.13
2022-09-28T13:53:46.374Z,1.10
2022-09-28T13:56:25.911Z,1.30
2022-09-28T13:58:56.838Z,1.13
2022-09-28T14:01:27.983Z,1.03
2022-09-28T14:03:57.949Z,0.70
2022-09-28T14:06:33.795Z,1.07
2022-09-28T14:09:10.600Z,0.80
2022-09-28T14:11:44.307Z,0.80
2022-09-28T14:14:33.806Z,1.10
2022-09-28T14:17:47.996Z,1.37
2022-09-28T14:20:17.999Z,1.20
2022-09-28T14:23:10.914Z,0.80
2022-09-28T14:25:44.155Z,1.03
2022-09-28T14:28:31.184Z,1.20
2022-09-28T14:30:59.771Z,0.93
2022-09-28T14:33:29.928Z,1.20
2022-09-28T14:35:59.749Z,1.37
2022-09-28T14:38:49.967Z,1.30
2022-09-28T14:41:31.426Z,1.20
2022-09-28T14:44:05.899Z,1.23
2022-09-28T14:46:36.971Z,0.93
2022-09-28T14:49:07.455Z,1.57
2022-09-28T14:51:56.208Z,1.03
2022-09-28T14:54:26.789Z,1.60
2022-09-28T14:57:08.235Z,1.23
2022-09-28T14:59:43.700Z,1.70
2022-09-28T15:02:18.459Z,1.40
2022-09-28T15:04:49.901Z,1.40
2022-09-28T15:07:23.639Z,1.60
2022-09-28T15:09:54.165Z,1.10
2022-09-28T15:12:23.527Z,1.37
2022-09-28T15:14:53.948Z,1.50
2022-09-28T15:17:24.774Z,1.50
2022-09-28T15:20:18.671Z,2.03
2022-09-28T15:22:47.688Z,1.90
2022-09-28T15:25:20.015Z,1.70
2022-09-28T15:27:52.718Z,1.50
2022-09-28T15:30:25.487Z,1.83
2022-09-28T15:32:57.176Z,1.70
2022-09-28T15:35:26.668Z,2.00
2022-09-28T15:37:56.087Z,2.23
2022-09-28T15:40:32.914Z,1.97
2022-09-28T15:43:02.628Z,2.27
2022-09-28T15:45:33.839Z,2.20
2022-09-28T15:48:20.577Z,1.87
2022-09-28T15:50:59.519Z,2.10
2022-09-28T15:53:28.155Z,2.07
2022-09-28T15:56:10.121Z,1.50
2022-09-28T15:58:39.087Z,1.60
2022-09-28T16:01:29.523Z,1.60
2022-09-28T16:03:57.726Z,1.77
2022-09-28T16:06:25.859Z,2.00
2022-09-28T16:08:53.965Z,1.83
2022-09-28T16:11:26.413Z,2.67
2022-09-28T16:13:57.587Z,1.90
2022-09-28T16:16:28.295Z,1.65
2022-09-28T16:18:56.607Z,1.70
2022-09-28T16:21:40.847Z,1.40
2022-09-28T16:24:15.427Z,1.70
2022-09-28T16:26:44.917Z,1.60
2022-09-28T16:29:27.647Z,2.20
2022-09-28T16:31:55.928Z,1.93
2022-09-28T16:34:26.887Z,2.05
2022-09-28T16:36:55.167Z,1.73
2022-09-28T16:39:23.347Z,1.63
2022-09-28T16:41:55.529Z,1.50
2022-09-28T16:44:26.385Z,1.50
2022-09-28T16:46:57.161Z,1.83
2022-09-28T16:49:27.077Z,1.73
2022-09-28T16:51:55.314Z,1.70
2022-09-28T16:54:42.129Z,1.60
2022-09-28T16:57:13.356Z,1.67
2022-09-28T16:59:41.704Z,1.40
2022-09-28T17:02:42.564Z,1.50
2022-09-28T17:05:09.107Z,3.40
2022-09-28T17:07:37.387Z,1.77
2022-09-28T17:10:14.215Z,1.70
2022-09-28T17:12:43.697Z,1.53
2022-09-28T17:15:12.164Z,1.03
2022-09-28T17:17:40.664Z,1.40
2022-09-28T17:20:20.456Z,2.40
2022-09-28T17:22:48.635Z,1.80
2022-09-28T17:25:17.021Z,1.80
2022-09-28T17:27:48.237Z,1.20
2022-09-28T17:30:17.118Z,1.50
2022-09-28T17:32:47.383Z,2.30
2022-09-28T17:35:25.464Z,2.50
2022-09-28T17:37:54.917Z,2.53
2022-09-28T17:40:25.557Z,3.40
2022-09-28T17:42:56.878Z,32.80
2022-09-28T17:45:27.124Z,8.30
2022-09-28T17:47:55.927Z,4.60
2022-09-28T17:50:25.937Z,3.93
2022-09-28T17:52:55.157Z,3.53
2022-09-28T17:55:23.921Z,3.80
2022-09-28T17:57:52.409Z,3.97
2022-09-28T18:00:22.358Z,3.50
2022-09-28T18:02:52.138Z,2.87
2022-09-28T18:05:21.007Z,2.33
2022-09-28T18:07:50.409Z,2.27
2022-09-28T18:10:21.565Z,2.33
2022-09-28T18:12:51.224Z,2.20
2022-09-28T18:15:21.514Z,2.43
2022-09-28T18:17:49.936Z,2.50
2022-09-28T18:20:18.349Z,3.40
2022-09-28T18:22:46.647Z,3.33
2022-09-28T18:25:14.887Z,3.70
2022-09-28T18:27:43.429Z,2.67
2022-09-28T18:30:12.266Z,2.70
2022-09-28T18:32:41.940Z,2.27
2022-09-28T18:35:11.505Z,2.77
2022-09-28T18:37:40.515Z,2.33
2022-09-28T18:40:10.027Z,3.10
2022-09-28T18:42:38.287Z,2.63
2022-09-28T18:45:07.964Z,2.63
2022-09-28T18:47:36.347Z,3.90
2022-09-28T18:50:07.205Z,3.00
2022-09-28T18:52:37.617Z,3.50
2022-09-28T18:55:06.784Z,3.60
2022-09-28T18:57:35.472Z,5.30
2022-09-28T19:00:05.427Z,5.17
2022-09-28T19:02:33.822Z,6.03
2022-09-28T19:05:02.097Z,6.37
2022-09-28T19:07:31.867Z,7.00
2022-09-28T19:10:00.076Z,11.43
2022-09-28T19:12:28.366Z,11.90
2022-09-28T19:14:56.597Z,8.70
2022-09-28T19:17:24.854Z,6.80
2022-09-28T19:19:53.047Z,6.47
2022-09-28T19:22:21.259Z,6.37
2022-09-28T19:24:50.909Z,6.47
2022-09-28T19:27:19.135Z,7.07
2022-09-28T19:29:47.379Z,7.27
2022-09-28T19:32:15.643Z,6.33
2022-09-28T19:34:43.823Z,6.73
2022-09-28T19:37:12.088Z,7.00
2022-09-28T19:39:40.790Z,6.70
2022-09-28T19:42:10.472Z,8.80
2022-09-28T19:44:39.347Z,12.93
2022-09-28T19:47:10.197Z,11.53
2022-09-28T19:49:39.789Z,10.83
2022-09-28T19:52:14.664Z,9.60
2022-09-28T19:54:45.111Z,8.00
2022-09-28T19:57:16.187Z,7.07
2022-09-28T20:00:09.918Z,6.77
2022-09-28T20:02:38.239Z,7.13
2022-09-28T20:05:07.018Z,6.67
2022-09-28T20:07:36.349Z,7.23
2022-09-28T20:10:04.918Z,6.00
2022-09-28T20:12:34.803Z,4.87
2022-09-28T20:15:03.022Z,4.80
2022-09-28T20:17:31.247Z,5.37
2022-09-28T20:19:59.449Z,5.30
2022-09-28T20:22:27.668Z,4.93
2022-09-28T20:24:55.859Z,4.37
2022-09-28T20:27:26.499Z,4.20
2022-09-28T20:29:56.247Z,4.67
2022-09-28T20:32:24.450Z,4.37
2022-09-28T20:34:52.688Z,5.00
2022-09-28T20:37:20.907Z,4.53
2022-09-28T20:39:49.136Z,3.87
2022-09-28T20:42:17.898Z,4.13
2022-09-28T20:44:46.178Z,3.50
2022-09-28T20:47:15.829Z,3.27
2022-09-28T20:49:44.588Z,3.87
2022-09-28T20:52:12.844Z,3.80
2022-09-28T20:54:41.077Z,4.03
2022-09-28T20:57:17.670Z,3.70
2022-09-28T20:59:47.875Z,4.10
2022-09-28T21:02:20.573Z,4.53
2022-09-28T21:04:48.828Z,3.97
2022-09-28T21:07:16.999Z,4.90
2022-09-28T21:09:45.238Z,4.70
2022-09-28T21:12:15.512Z,4.73
2022-09-28T21:14:43.727Z,3.80
2022-09-28T21:17:11.907Z,3.93
2022-09-28T21:19:41.587Z,4.37
2022-09-28T21:22:09.727Z,4.27
2022-09-28T21:24:38.288Z,4.53
2022-09-28T21:27:06.456Z,3.80
2022-09-28T21:29:35.047Z,4.07
2022-09-28T21:32:03.479Z,4.50
2022-09-28T21:34:31.688Z,4.90
2022-09-28T21:37:01.366Z,4.50
2022-09-28T21:39:29.562Z,4.87
2022-09-28T21:41:57.729Z,4.30
2022-09-28T21:44:26.419Z,5.63
2022-09-28T21:46:54.711Z,4.47
2022-09-28T21:49:23.359Z,4.20
2022-09-28T21:51:52.718Z,5.00
2022-09-28T21:54:22.749Z,3.93
2022-09-28T21:56:50.949Z,5.07
2022-09-28T21:59:19.257Z,4.30
2022-09-28T22:01:48.339Z,4.53
2022-09-28T22:04:16.731Z,3.97
2022-09-28T22:06:44.899Z,4.47
2022-09-28T22:09:13.118Z,4.00
2022-09-28T22:11:42.880Z,4.10
2022-09-28T22:14:11.850Z,4.27
2022-09-28T22:16:40.825Z,5.07
2022-09-28T22:19:09.145Z,4.10
2022-09-28T22:21:37.287Z,4.43
2022-09-28T22:24:07.277Z,4.40
2022-09-28T22:26:37.554Z,5.17
2022-09-28T22:29:08.821Z,4.93
2022-09-28T22:31:38.406Z,5.50
2022-09-28T22:34:07.135Z,4.90
2022-09-28T22:36:35.388Z,5.40
2022-09-28T22:39:03.820Z,4.93
2022-09-28T22:41:32.320Z,4.63
2022-09-28T22:44:00.859Z,5.23
2022-09-28T22:46:32.064Z,5.60
2022-09-28T22:49:00.989Z,5.47
2022-09-28T22:51:30.613Z,5.70
2022-09-28T22:53:58.974Z,6.27
2022-09-28T22:56:27.209Z,5.63
2022-09-28T22:58:55.427Z,5.67
2022-09-28T23:01:25.135Z,6.20
2022-09-28T23:03:55.836Z,6.10
2022-09-28T23:06:26.106Z,5.33
2022-09-28T23:08:54.614Z,5.53
2022-09-28T23:11:22.797Z,5.80
2022-09-28T23:13:51.779Z,5.73
2022-09-28T23:16:20.623Z,6.10
2022-09-28T23:18:49.442Z,6.10
2022-09-28T23:21:22.616Z,5.33
2022-09-28T23:23:55.306Z,7.20
2022-09-28T23:26:25.168Z,6.00
2022-09-28T23:28:54.090Z,5.70
2022-09-28T23:31:23.569Z,6.13
2022-09-28T23:33:51.848Z,6.60
2022-09-28T23:36:22.132Z,6.57
2022-09-28T23:38:50.597Z,6.10
2022-09-28T23:41:19.187Z,5.87
2022-09-28T23:43:47.428Z,6.03
2022-09-28T23:46:20.475Z,6.30
2022-09-28T23:48:49.642Z,6.20
2022-09-28T23:51:17.924Z,6.20
2022-09-28T23:53:47.827Z,6.47
2022-09-28T23:56:16.077Z,6.17
2022-09-28T23:58:44.387Z,5.93
